createdAt,value
2019-01-26T00:01:27.394Z,83.98
2019-01-26T00:03:56.526Z,83.57
2019-01-26T00:06:25.565Z,84.31
2019-01-26T00:08:54.629Z,85.02
2019-01-26T00:11:23.725Z,84.56
2019-01-26T00:13:52.759Z,84.45
2019-01-26T00:16:21.797Z,84.28
2019-01-26T00:18:52.151Z,84.54
2019-01-26T00:21:21.190Z,84.55
2019-01-26T00:23:50.257Z,84.62
2019-01-26T00:26:19.291Z,84.71
2019-01-26T00:28:48.308Z,84.81
2019-01-26T00:31:17.352Z,84.39
2019-01-26T00:33:46.354Z,84.06
2019-01-26T00:36:15.393Z,84.47
2019-01-26T00:38:44.427Z,84.93
2019-01-26T00:41:13.456Z,84.83
2019-01-26T00:43:42.472Z,85.50
2019-01-26T00:46:11.519Z,84.49
2019-01-26T00:48:40.560Z,84.46
2019-01-26T00:51:09.630Z,85.57
2019-01-26T00:53:38.735Z,85.49
2019-01-26T00:56:07.725Z,85.04
2019-01-26T00:58:36.768Z,85.84
2019-01-26T01:01:05.801Z,86.30
2019-01-26T01:03:34.851Z,85.73
2019-01-26T01:06:03.871Z,85.41
2019-01-26T01:08:32.879Z,86.82
2019-01-26T01:11:01.893Z,86.38
2019-01-26T01:13:30.897Z,85.44
2019-01-26T01:15:59.944Z,85.88
2019-01-26T01:18:28.981Z,85.66
2019-01-26T01:20:58.203Z,86.12
2019-01-26T01:23:27.273Z,86.46
2019-01-26T01:25:56.476Z,86.36
2019-01-26T01:28:25.482Z,86.61
2019-01-26T01:30:54.495Z,86.65
2019-01-26T01:33:23.518Z,86.03
2019-01-26T01:35:52.523Z,85.85
2019-01-26T01:38:21.506Z,85.53
2019-01-26T01:40:50.525Z,85.09
2019-01-26T01:43:19.497Z,85.31
2019-01-26T01:45:48.515Z,85.16
2019-01-26T01:48:17.523Z,84.92
2019-01-26T01:50:46.507Z,85.16
2019-01-26T01:53:15.542Z,85.25
2019-01-26T01:55:44.550Z,84.79
2019-01-26T01:58:13.569Z,84.59
2019-01-26T02:00:42.620Z,85.63
2019-01-26T02:03:11.591Z,85.39
2019-01-26T02:05:40.604Z,84.80
2019-01-26T02:08:09.632Z,84.46
2019-01-26T02:10:38.643Z,84.61
2019-01-26T02:13:07.635Z,85.26
2019-01-26T02:15:36.728Z,85.06
2019-01-26T02:18:05.752Z,85.09
2019-01-26T02:20:34.789Z,85.48
2019-01-26T02:23:03.818Z,85.52
2019-01-26T02:25:32.821Z,85.41
2019-01-26T02:28:01.814Z,86.03
2019-01-26T02:30:30.835Z,86.07
2019-01-26T02:32:59.972Z,86.08
2019-01-26T02:35:28.996Z,86.03
2019-01-26T02:37:58.116Z,86.47
2019-01-26T02:40:27.166Z,86.33
2019-01-26T02:42:56.203Z,87.22
2019-01-26T02:45:25.226Z,87.44
2019-01-26T02:47:54.230Z,87.76
2019-01-26T02:50:23.316Z,87.53
2019-01-26T02:52:52.320Z,87.05
2019-01-26T02:55:21.330Z,87.35
2019-01-26T02:57:50.356Z,87.84
2019-01-26T03:00:23.217Z,87.98
2019-01-26T03:02:52.275Z,88.37
2019-01-26T03:05:21.372Z,88.54
2019-01-26T03:07:50.351Z,88.53
2019-01-26T03:10:21.036Z,88.02
2019-01-26T03:12:50.021Z,87.57
2019-01-26T03:15:20.529Z,87.73
2019-01-26T03:17:49.539Z,86.90
2019-01-26T03:20:18.563Z,86.98
2019-01-26T03:22:47.555Z,87.41
2019-01-26T03:25:16.591Z,87.56
2019-01-26T03:27:45.626Z,88.14
2019-01-26T03:30:17.249Z,87.31
2019-01-26T03:32:46.233Z,87.38
2019-01-26T03:35:15.266Z,87.06
2019-01-26T03:37:44.267Z,87.27
2019-01-26T03:40:14.055Z,87.57
2019-01-26T03:42:43.047Z,87.84
2019-01-26T03:45:12.762Z,88.07
2019-01-26T03:47:41.803Z,87.79
2019-01-26T03:50:11.827Z,87.46
2019-01-26T03:52:40.885Z,87.34
2019-01-26T03:55:11.284Z,87.95
2019-01-26T03:57:40.319Z,88.16
2019-01-26T04:00:16.025Z,87.73
2019-01-26T04:02:45.049Z,88.19
2019-01-26T04:05:14.034Z,87.95
2019-01-26T04:07:43.091Z,87.37
2019-01-26T04:10:12.135Z,86.51
2019-01-26T04:12:41.145Z,86.19
2019-01-26T04:15:31.910Z,86.11
2019-01-26T04:18:01.058Z,86.11
2019-01-26T04:20:30.064Z,85.87
2019-01-26T04:22:59.056Z,86.16
2019-01-26T04:25:28.060Z,86.17
2019-01-26T04:27:57.102Z,86.08
2019-01-26T04:30:26.072Z,86.22
2019-01-26T04:32:55.066Z,86.20
2019-01-26T04:35:24.115Z,86.36
2019-01-26T04:37:53.118Z,86.80
2019-01-26T04:40:22.084Z,86.92
2019-01-26T04:42:51.087Z,86.24
2019-01-26T04:45:22.259Z,86.24
2019-01-26T04:47:51.313Z,86.53
2019-01-26T04:50:20.479Z,86.53
2019-01-26T04:52:49.495Z,86.78
2019-01-26T04:55:19.205Z,87.29
2019-01-26T04:57:48.174Z,87.29
2019-01-26T05:00:25.057Z,87.38
2019-01-26T05:02:54.087Z,87.21
2019-01-26T05:05:23.085Z,87.21
2019-01-26T05:07:52.093Z,86.99
2019-01-26T05:10:21.159Z,86.57
2019-01-26T05:12:50.275Z,87.13
2019-01-26T05:15:19.317Z,87.13
2019-01-26T05:17:48.351Z,86.79
2019-01-26T05:20:22.502Z,86.64
2019-01-26T05:22:51.531Z,86.84
2019-01-26T05:25:20.548Z,86.71
2019-01-26T05:27:49.592Z,86.71
2019-01-26T05:30:21.046Z,86.58
2019-01-26T05:32:50.108Z,86.61
2019-01-26T05:35:19.140Z,86.58
2019-01-26T05:37:48.179Z,86.36
2019-01-26T05:40:17.385Z,86.36
2019-01-26T05:42:46.420Z,86.22
2019-01-26T05:45:17.594Z,86.08
2019-01-26T05:47:49.000Z,85.90
2019-01-26T05:50:22.793Z,86.02
2019-01-26T05:52:51.809Z,86.50
2019-01-26T05:55:20.806Z,86.58
2019-01-26T05:57:49.848Z,86.56
2019-01-26T06:03:12.703Z,86.16
2019-01-26T06:05:41.751Z,86.06
2019-01-26T06:08:10.841Z,86.12
2019-01-26T06:10:39.920Z,87.00
2019-01-26T06:13:08.965Z,87.00
2019-01-26T06:15:37.969Z,87.23
2019-01-26T06:18:08.601Z,88.32
2019-01-26T06:20:37.697Z,88.95
2019-01-26T06:23:06.823Z,88.88
2019-01-26T06:25:36.007Z,89.64
2019-01-26T06:28:05.089Z,89.64
2019-01-26T06:30:34.131Z,89.52
2019-01-26T06:33:03.157Z,89.54
2019-01-26T06:35:32.229Z,89.95
2019-01-26T06:38:01.370Z,89.93
2019-01-26T06:40:30.486Z,89.98
2019-01-26T06:42:59.622Z,89.96
2019-01-26T06:45:28.686Z,90.02
2019-01-26T06:48:02.089Z,89.87
2019-01-26T06:50:29.450Z,89.23
2019-01-26T06:52:58.636Z,89.23
2019-01-26T06:55:27.724Z,89.32
2019-01-26T06:57:56.790Z,89.72
2019-01-26T07:00:30.076Z,89.60
2019-01-26T07:02:59.172Z,89.48
2019-01-26T07:05:47.210Z,89.56
2019-01-26T07:08:18.382Z,89.42
2019-01-26T07:10:47.559Z,89.51
2019-01-26T07:13:16.656Z,89.34
2019-01-26T07:15:45.781Z,88.95
2019-01-26T07:18:14.896Z,88.90
2019-01-26T07:20:44.004Z,88.56
2019-01-26T07:23:13.329Z,88.21
2019-01-26T07:25:42.424Z,87.41
2019-01-26T07:28:11.413Z,87.84
2019-01-26T07:30:40.473Z,87.97
2019-01-26T07:33:09.540Z,88.21
2019-01-26T07:35:38.546Z,88.38
2019-01-26T07:38:13.515Z,88.08
2019-01-26T07:40:38.407Z,88.03
2019-01-26T07:43:07.484Z,87.33
2019-01-26T07:45:36.489Z,88.33
2019-01-26T07:48:05.583Z,88.08
2019-01-26T07:50:34.643Z,87.00
2019-01-26T07:53:03.685Z,87.52
2019-01-26T07:55:32.708Z,87.77
2019-01-26T07:58:01.722Z,88.14
2019-01-26T08:00:31.132Z,88.03
2019-01-26T08:03:00.151Z,87.66
2019-01-26T08:05:29.206Z,87.40
2019-01-26T08:07:58.227Z,87.75
2019-01-26T08:10:27.261Z,87.89
2019-01-26T08:12:56.349Z,88.07
2019-01-26T08:15:30.887Z,87.86
2019-01-26T08:17:59.963Z,87.70
2019-01-26T08:20:29.068Z,88.11
2019-01-26T08:22:58.030Z,88.33
2019-01-26T08:25:27.087Z,88.23
2019-01-26T08:27:56.134Z,87.99
2019-01-26T08:30:25.335Z,87.66
2019-01-26T08:32:54.605Z,87.79
2019-01-26T08:35:23.693Z,87.41
2019-01-26T08:37:52.737Z,87.23
2019-01-26T08:40:21.982Z,87.08
2019-01-26T08:42:51.119Z,87.79
2019-01-26T08:45:20.130Z,86.83
2019-01-26T08:47:50.197Z,87.58
2019-01-26T08:50:24.214Z,87.76
2019-01-26T08:52:53.281Z,87.48
2019-01-26T08:55:22.364Z,87.52
2019-01-26T08:57:51.436Z,86.70
2019-01-26T09:00:25.446Z,87.88
2019-01-26T09:03:13.590Z,87.30
2019-01-26T09:06:14.696Z,87.53
2019-01-26T09:08:43.746Z,86.76
2019-01-26T09:11:12.920Z,87.03
2019-01-26T09:13:42.014Z,86.94
2019-01-26T09:16:11.109Z,86.84
2019-01-26T09:18:40.317Z,87.07
2019-01-26T09:21:09.439Z,87.10
2019-01-26T09:23:38.613Z,87.62
2019-01-26T09:26:07.689Z,87.26
2019-01-26T09:28:36.973Z,87.49
2019-01-26T09:31:06.190Z,87.02
2019-01-26T09:33:35.281Z,86.86
2019-01-26T09:36:04.939Z,87.17
2019-01-26T09:38:34.053Z,87.03
2019-01-26T09:41:03.165Z,87.02
2019-01-26T09:43:32.279Z,86.79
2019-01-26T09:46:01.423Z,86.68
2019-01-26T09:48:30.575Z,87.08
2019-01-26T09:50:59.693Z,87.57
2019-01-26T09:53:28.800Z,87.08
2019-01-26T09:55:57.887Z,87.20
2019-01-26T09:58:26.996Z,87.50
2019-01-26T10:00:56.330Z,87.26
2019-01-26T10:03:25.564Z,86.96
2019-01-26T10:05:54.644Z,87.26
2019-01-26T10:08:23.762Z,86.92
2019-01-26T10:10:52.882Z,86.97
2019-01-26T10:13:21.956Z,86.78
2019-01-26T10:15:51.062Z,87.32
2019-01-26T10:18:20.192Z,86.41
2019-01-26T10:20:49.348Z,85.89
2019-01-26T10:23:18.423Z,86.37
2019-01-26T10:25:48.842Z,85.89
2019-01-26T10:28:18.058Z,86.29
2019-01-26T10:30:50.613Z,86.25
2019-01-26T10:33:19.779Z,85.67
2019-01-26T10:36:13.749Z,86.42
2019-01-26T10:38:48.029Z,85.69
2019-01-26T10:41:34.821Z,85.00
2019-01-26T10:44:04.085Z,85.51
2019-01-26T10:46:33.123Z,86.11
2019-01-26T10:49:02.239Z,85.39
2019-01-26T10:51:31.301Z,85.28
2019-01-26T10:54:00.385Z,85.43
2019-01-26T10:56:29.745Z,86.31
2019-01-26T10:58:58.976Z,86.43
2019-01-26T11:01:28.406Z,85.97
2019-01-26T11:03:57.528Z,86.09
2019-01-26T11:06:26.792Z,85.89
2019-01-26T11:09:08.481Z,86.17
2019-01-26T11:11:40.396Z,85.25
2019-01-26T11:14:09.456Z,85.97
2019-01-26T11:16:38.654Z,85.28
2019-01-26T11:19:08.179Z,86.20
2019-01-26T11:21:37.363Z,85.77
2019-01-26T11:24:06.810Z,85.69
2019-01-26T11:26:38.715Z,85.73
2019-01-26T11:29:07.840Z,85.18
2019-01-26T11:31:37.504Z,86.02
2019-01-26T11:34:06.610Z,85.56
2019-01-26T11:36:35.712Z,85.61
2019-01-26T11:39:07.949Z,85.90
2019-01-26T11:41:37.044Z,86.08
2019-01-26T11:44:06.343Z,85.65
2019-01-26T11:46:47.895Z,86.29
2019-01-26T11:49:16.995Z,86.10
2019-01-26T11:52:05.065Z,85.54
2019-01-26T11:54:34.109Z,85.51
2019-01-26T11:57:22.281Z,85.80
2019-01-26T12:00:10.321Z,86.27
2019-01-26T12:02:44.703Z,85.07
2019-01-26T12:05:23.979Z,85.31
2019-01-26T12:07:52.905Z,85.40
2019-01-26T12:10:21.959Z,86.16
2019-01-26T12:12:51.029Z,84.98
2019-01-26T12:15:20.188Z,84.69
2019-01-26T12:17:49.243Z,85.30
2019-01-26T12:20:18.346Z,85.39
2019-01-26T12:22:47.418Z,85.37
2019-01-26T12:25:16.526Z,85.21
2019-01-26T12:27:45.680Z,84.96
2019-01-26T12:30:14.782Z,85.35
2019-01-26T12:32:43.821Z,84.94
2019-01-26T12:35:13.619Z,84.87
2019-01-26T12:37:42.708Z,85.32
2019-01-26T12:40:12.224Z,85.62
2019-01-26T12:42:41.313Z,84.41
2019-01-26T12:45:13.846Z,84.60
2019-01-26T12:47:42.870Z,84.88
2019-01-26T12:50:11.964Z,85.04
2019-01-26T12:52:41.309Z,85.38
2019-01-26T12:55:13.825Z,85.72
2019-01-26T12:57:43.091Z,84.81
2019-01-26T13:00:17.829Z,84.75
2019-01-26T13:02:46.214Z,85.30
2019-01-26T13:05:15.339Z,83.97
2019-01-26T13:07:44.497Z,84.81
2019-01-26T13:10:32.593Z,84.50
2019-01-26T13:13:07.931Z,84.77
2019-01-26T13:15:37.142Z,84.84
2019-01-26T13:18:10.629Z,84.89
2019-01-26T13:20:40.803Z,84.74
2019-01-26T13:23:12.811Z,84.60
2019-01-26T13:25:41.952Z,83.70
2019-01-26T13:28:19.490Z,84.72
2019-01-26T13:30:50.881Z,84.93
2019-01-26T13:33:19.985Z,84.58
2019-01-26T13:35:49.168Z,84.85
2019-01-26T13:38:19.432Z,84.94
2019-01-26T13:40:48.535Z,84.87
2019-01-26T13:43:22.216Z,84.50
2019-01-26T13:45:51.572Z,85.08
2019-01-26T13:48:20.801Z,85.13
2019-01-26T13:50:49.977Z,85.16
2019-01-26T13:53:19.048Z,85.12
2019-01-26T13:55:49.941Z,84.83
2019-01-26T13:58:19.110Z,84.88
2019-01-26T14:00:48.275Z,84.79
2019-01-26T14:03:17.324Z,84.62
2019-01-26T14:05:46.433Z,84.93
2019-01-26T14:08:15.602Z,84.59
2019-01-26T14:10:44.766Z,84.57
2019-01-26T14:13:13.864Z,84.62
2019-01-26T14:15:43.132Z,84.29
2019-01-26T14:18:12.336Z,84.41
2019-01-26T14:20:41.527Z,83.84
2019-01-26T14:23:10.655Z,84.83
2019-01-26T14:25:39.724Z,84.84
2019-01-26T14:28:08.777Z,84.31
2019-01-26T14:30:44.255Z,84.45
2019-01-26T14:33:13.330Z,83.81
2019-01-26T14:35:43.605Z,84.43
2019-01-26T14:38:12.708Z,84.68
2019-01-26T14:40:42.201Z,84.73
2019-01-26T14:43:11.289Z,84.77
2019-01-26T14:45:40.351Z,84.67
2019-01-26T14:48:09.473Z,84.85
2019-01-26T14:50:38.480Z,85.35
2019-01-26T14:53:07.518Z,85.20
2019-01-26T14:55:36.536Z,85.35
2019-01-26T14:58:05.620Z,85.14
2019-01-26T15:00:34.940Z,85.24
2019-01-26T15:03:04.145Z,85.34
2019-01-26T15:05:33.263Z,85.24
2019-01-26T15:08:02.381Z,85.29
2019-01-26T15:10:31.541Z,84.53
2019-01-26T15:13:00.740Z,84.66
2019-01-26T15:15:29.913Z,84.73
2019-01-26T15:17:59.055Z,84.72
2019-01-26T15:20:30.576Z,84.62
2019-01-26T15:22:59.771Z,84.64
2019-01-26T15:25:28.966Z,84.80
2019-01-26T15:27:58.073Z,84.62
2019-01-26T15:30:29.327Z,84.84
2019-01-26T15:32:58.415Z,84.64
2019-01-26T15:38:20.120Z,84.51
2019-01-26T15:40:49.214Z,84.08
2019-01-26T15:43:18.564Z,84.19
2019-01-26T15:45:50.057Z,83.75
2019-01-26T15:48:19.332Z,84.45
2019-01-26T15:50:48.422Z,84.19
2019-01-26T15:53:19.235Z,84.25
2019-01-26T15:55:48.310Z,84.68
2019-01-26T15:58:17.471Z,84.67
2019-01-26T16:00:47.017Z,84.79
2019-01-26T16:03:16.112Z,84.41
2019-01-26T16:05:45.466Z,84.60
2019-01-26T16:08:14.866Z,84.75
2019-01-26T16:10:44.096Z,85.10
2019-01-26T16:13:13.294Z,84.98
2019-01-26T16:15:42.548Z,84.87
2019-01-26T16:18:14.239Z,85.21
2019-01-26T16:20:43.324Z,85.40
2019-01-26T16:23:12.441Z,85.21
2019-01-26T16:25:41.603Z,85.28
2019-01-26T16:28:10.787Z,85.01
2019-01-26T16:30:39.923Z,84.95
2019-01-26T16:33:08.988Z,84.32
2019-01-26T16:35:38.071Z,84.64
2019-01-26T16:38:07.224Z,84.12
2019-01-26T16:40:36.685Z,84.33
2019-01-26T16:43:06.020Z,84.26
2019-01-26T16:45:37.836Z,84.17
2019-01-26T16:48:09.012Z,84.32
2019-01-26T16:50:38.168Z,84.12
2019-01-26T16:53:07.277Z,83.79
2019-01-26T16:55:39.137Z,83.94
2019-01-26T16:58:08.187Z,83.57
2019-01-26T17:00:45.634Z,83.42
2019-01-26T17:03:14.703Z,83.71
2019-01-26T17:05:43.761Z,83.60
2019-01-26T17:08:12.838Z,83.46
2019-01-26T17:10:41.921Z,83.40
2019-01-26T17:13:10.979Z,83.16
2019-01-26T17:15:40.214Z,83.09
2019-01-26T17:18:13.869Z,82.95
2019-01-26T17:20:41.379Z,82.76
2019-01-26T17:24:14.097Z,82.77
2019-01-26T17:25:41.959Z,82.88
2019-01-26T17:28:11.069Z,83.10
2019-01-26T17:31:01.871Z,82.87
2019-01-26T17:33:34.151Z,82.68
2019-01-26T17:36:05.378Z,82.61
2019-01-26T17:38:35.546Z,82.72
2019-01-26T17:41:06.073Z,82.56
2019-01-26T17:43:35.524Z,82.69
2019-01-26T17:46:04.885Z,82.56
2019-01-26T17:48:34.202Z,82.70
2019-01-26T17:51:03.960Z,82.86
2019-01-26T17:53:36.348Z,82.88
2019-01-26T17:56:05.752Z,83.19
2019-01-26T17:58:38.370Z,83.18
2019-01-26T18:01:10.654Z,83.28
2019-01-26T18:03:40.202Z,83.26
2019-01-26T18:06:09.908Z,83.53
2019-01-26T18:08:39.365Z,83.84
2019-01-26T18:11:08.987Z,83.61
2019-01-26T18:13:38.650Z,84.11
2019-01-26T18:16:10.766Z,83.99
2019-01-26T18:18:40.257Z,83.85
2019-01-26T18:21:12.752Z,83.61
2019-01-26T18:23:44.644Z,83.39
2019-01-26T18:26:14.675Z,83.17
2019-01-26T18:28:44.723Z,83.02
2019-01-26T18:31:15.963Z,82.96
2019-01-26T18:33:48.039Z,82.62
2019-01-26T18:36:19.603Z,82.63
2019-01-26T18:38:49.045Z,82.75
2019-01-26T18:41:18.363Z,82.70
2019-01-26T18:43:50.509Z,82.63
2019-01-26T18:46:22.968Z,82.24
2019-01-26T18:48:55.530Z,82.73
2019-01-26T18:51:25.234Z,82.25
2019-01-26T18:53:54.800Z,82.17
2019-01-26T18:56:24.484Z,82.47
2019-01-26T18:58:56.116Z,82.09
2019-01-26T19:01:25.542Z,82.10
2019-01-26T19:04:28.036Z,82.25
2019-01-26T19:06:57.204Z,82.43
2019-01-26T19:09:26.364Z,82.57
2019-01-26T19:11:55.665Z,82.53
2019-01-26T19:14:24.807Z,82.40
2019-01-26T19:16:56.031Z,82.46
2019-01-26T19:19:25.232Z,82.79
2019-01-26T19:21:54.539Z,82.46
2019-01-26T19:24:24.495Z,82.75
2019-01-26T19:26:53.790Z,82.79
2019-01-26T19:29:22.989Z,82.96
2019-01-26T19:31:52.156Z,83.03
2019-01-26T19:34:21.507Z,83.10
2019-01-26T19:36:50.787Z,83.22
2019-01-26T19:39:19.941Z,83.35
2019-01-26T19:41:49.353Z,83.30
2019-01-26T19:44:18.729Z,83.52
2019-01-26T19:46:48.071Z,83.50
2019-01-26T19:49:17.197Z,83.50
2019-01-26T19:51:46.543Z,83.37
2019-01-26T19:54:15.686Z,83.55
2019-01-26T19:56:44.702Z,83.52
2019-01-26T19:59:13.849Z,83.45
2019-01-26T20:01:43.029Z,83.29
2019-01-26T20:04:12.263Z,83.45
2019-01-26T20:06:41.549Z,83.58
2019-01-26T20:09:11.144Z,83.48
2019-01-26T20:11:40.289Z,83.38
2019-01-26T20:14:09.378Z,83.22
2019-01-26T20:16:38.724Z,82.94
2019-01-26T20:19:07.808Z,82.84
2019-01-26T20:21:37.075Z,83.12
2019-01-26T20:24:07.388Z,83.13
2019-01-26T20:26:37.722Z,82.88
2019-01-26T20:29:06.951Z,83.29
2019-01-26T20:31:36.412Z,83.39
2019-01-26T20:34:07.433Z,83.40
2019-01-26T20:39:29.294Z,83.51
2019-01-26T20:42:00.254Z,83.43
2019-01-26T20:44:29.420Z,83.42
2019-01-26T20:46:58.860Z,83.51
2019-01-26T20:49:28.033Z,83.45
2019-01-26T20:52:11.888Z,83.31
2019-01-26T20:54:41.150Z,83.27
2019-01-26T20:57:10.627Z,83.08
2019-01-26T20:59:39.879Z,83.21
2019-01-26T21:02:09.174Z,83.52
2019-01-26T21:04:38.391Z,83.73
2019-01-26T21:07:07.569Z,83.56
2019-01-26T21:09:36.869Z,83.28
2019-01-26T21:12:06.293Z,83.82
2019-01-26T21:14:35.412Z,84.00
2019-01-26T21:17:04.635Z,84.10
2019-01-26T21:19:34.188Z,84.36
2019-01-26T21:22:03.708Z,84.16
2019-01-26T21:24:32.896Z,83.90
2019-01-26T21:27:02.066Z,84.07
2019-01-26T21:29:31.297Z,84.00
2019-01-26T21:34:50.538Z,83.84
2019-01-26T21:37:19.696Z,83.88
2019-01-26T21:39:51.917Z,83.94
2019-01-26T21:42:21.310Z,84.09
2019-01-26T21:44:50.578Z,83.96
2019-01-26T21:47:19.964Z,83.99
2019-01-26T21:49:49.114Z,84.01
2019-01-26T21:52:18.381Z,84.13
2019-01-26T21:54:47.475Z,83.99
2019-01-26T21:57:16.579Z,83.76
2019-01-26T21:59:45.885Z,83.70
2019-01-26T22:02:15.011Z,83.77
2019-01-26T22:04:44.186Z,83.62
2019-01-26T22:07:13.303Z,83.97
2019-01-26T22:09:42.451Z,83.70
2019-01-26T22:12:11.571Z,83.83
2019-01-26T22:14:40.657Z,83.67
2019-01-26T22:17:09.709Z,83.75
2019-01-26T22:19:38.901Z,83.88
2019-01-26T22:22:08.011Z,83.58
2019-01-26T22:24:37.180Z,83.33
2019-01-26T22:27:06.251Z,83.20
2019-01-26T22:29:35.332Z,82.70
2019-01-26T22:32:04.517Z,82.74
2019-01-26T22:34:33.610Z,82.85
2019-01-26T22:37:02.826Z,83.01
2019-01-26T22:39:31.908Z,82.77
2019-01-26T22:42:01.062Z,83.00
2019-01-26T22:44:30.219Z,82.75
2019-01-26T22:46:59.355Z,83.03
2019-01-26T22:49:29.321Z,83.25
2019-01-26T22:51:58.409Z,82.85
2019-01-26T22:54:27.500Z,82.47
2019-01-26T22:56:56.633Z,82.96
2019-01-26T22:59:28.778Z,82.95
2019-01-26T23:01:58.022Z,82.58
2019-01-26T23:05:02.729Z,82.41
2019-01-26T23:07:41.772Z,82.32
2019-01-26T23:10:58.107Z,82.62
2019-01-26T23:13:44.719Z,82.76
2019-01-26T23:16:47.728Z,81.90
2019-01-26T23:19:47.093Z,81.87
2019-01-26T23:22:40.223Z,81.96
2019-01-26T23:25:31.695Z,82.09
2019-01-26T23:28:43.732Z,81.76
2019-01-26T23:31:22.016Z,81.71
2019-01-26T23:33:52.263Z,81.91
2019-01-26T23:36:21.256Z,81.58
2019-01-26T23:38:50.290Z,80.96
2019-01-26T23:41:19.402Z,80.99
2019-01-26T23:43:48.469Z,81.02
2019-01-26T23:46:17.488Z,80.46
2019-01-26T23:48:46.576Z,80.17
2019-01-26T23:51:15.598Z,80.55
2019-01-26T23:53:44.617Z,80.87
2019-01-26T23:56:13.636Z,81.25
2019-01-26T23:58:42.734Z,81.02
